sensor_id;sensor_type;location;lat;lon;timestamp;temperature;humidity
27922;DHT22;15261;50.356;10.340;2024-01-06T00:02:22;2.90;99.90
27922;DHT22;15261;50.356;10.340;2024-01-06T00:04:48;2.90;99.90
27922;DHT22;15261;50.356;10.340;2024-01-06T00:07:19;2.90;99.90
27922;DHT22;15261;50.356;10.340;2024-01-06T00:09:45;2.90;99.90
27922;DHT22;15261;50.356;10.340;2024-01-06T00:12:10;2.90;99.90
27922;DHT22;15261;50.356;10.340;2024-01-06T00:14:36;2.80;99.90
27922;DHT22;15261;50.356;10.340;2024-01-06T00:17:13;2.80;99.90
27922;DHT22;15261;50.356;10.340;2024-01-06T00:19:38;2.60;99.90
27922;DHT22;15261;50.356;10.340;2024-01-06T00:22:04;2.50;99.90
27922;DHT22;15261;50.356;10.340;2024-01-06T00:24:29;2.50;99.90
27922;DHT22;15261;50.356;10.340;2024-01-06T00:26:55;2.50;99.90
27922;DHT22;15261;50.356;10.340;2024-01-06T00:29:20;2.50;99.90
27922;DHT22;15261;50.356;10.340;2024-01-06T00:31:46;2.40;99.90
27922;DHT22;15261;50.356;10.340;2024-01-06T00:34:12;2.40;99.90
27922;DHT22;15261;50.356;10.340;2024-01-06T00:36:38;2.40;99.90
27922;DHT22;15261;50.356;10.340;2024-01-06T00:39:04;2.30;99.90
27922;DHT22;15261;50.356;10.340;2024-01-06T00:41:29;2.40;99.90
27922;DHT22;15261;50.356;10.340;2024-01-06T00:43:55;2.40;99.90
27922;DHT22;15261;50.356;10.340;2024-01-06T00:46:21;2.40;99.90
27922;DHT22;15261;50.356;10.340;2024-01-06T00:48:46;2.40;99.90
27922;DHT22;15261;50.356;10.340;2024-01-06T00:51:12;2.40;99.90
27922;DHT22;15261;50.356;10.340;2024-01-06T00:53:56;2.40;99.90
27922;DHT22;15261;50.356;10.340;2024-01-06T00:56:22;2.40;99.90
27922;DHT22;15261;50.356;10.340;2024-01-06T00:58:48;2.40;99.90
27922;DHT22;15261;50.356;10.340;2024-01-06T01:01:13;2.40;99.90
27922;DHT22;15261;50.356;10.340;2024-01-06T01:03:39;2.20;99.90
27922;DHT22;15261;50.356;10.340;2024-01-06T01:06:04;2.20;99.90
27922;DHT22;15261;50.356;10.340;2024-01-06T01:08:30;2.10;99.90
27922;DHT22;15261;50.356;10.340;2024-01-06T01:10:56;2.00;99.90
27922;DHT22;15261;50.356;10.340;2024-01-06T01:13:22;2.00;99.90
27922;DHT22;15261;50.356;10.340;2024-01-06T01:15:53;2.00;99.90
27922;DHT22;15261;50.356;10.340;2024-01-06T01:18:19;1.90;99.90
27922;DHT22;15261;50.356;10.340;2024-01-06T01:20:44;2.00;99.90
27922;DHT22;15261;50.356;10.340;2024-01-06T01:23:10;2.00;99.90
27922;DHT22;15261;50.356;10.340;2024-01-06T01:25:35;2.00;99.90
27922;DHT22;15261;50.356;10.340;2024-01-06T01:28:01;1.90;99.90
27922;DHT22;15261;50.356;10.340;2024-01-06T01:30:27;1.90;99.90
27922;DHT22;15261;50.356;10.340;2024-01-06T01:32:53;2.00;99.90
27922;DHT22;15261;50.356;10.340;2024-01-06T01:35:18;2.00;99.90
27922;DHT22;15261;50.356;10.340;2024-01-06T01:37:44;2.00;99.90
27922;DHT22;15261;50.356;10.340;2024-01-06T01:40:10;2.00;99.90
27922;DHT22;15261;50.356;10.340;2024-01-06T01:42:36;1.90;99.90
27922;DHT22;15261;50.356;10.340;2024-01-06T01:45:03;2.00;99.90
27922;DHT22;15261;50.356;10.340;2024-01-06T01:47:28;2.00;99.90
27922;DHT22;15261;50.356;10.340;2024-01-06T01:49:55;1.90;99.90
27922;DHT22;15261;50.356;10.340;2024-01-06T01:52:21;2.00;99.90
27922;DHT22;15261;50.356;10.340;2024-01-06T01:54:47;2.00;99.90
27922;DHT22;15261;50.356;10.340;2024-01-06T01:57:15;2.00;99.90
27922;DHT22;15261;50.356;10.340;2024-01-06T02:42:13;1.80;99.90
27922;DHT22;15261;50.356;10.340;2024-01-06T02:44:52;1.80;99.90
27922;DHT22;15261;50.356;10.340;2024-01-06T02:47:18;1.80;99.90
27922;DHT22;15261;50.356;10.340;2024-01-06T02:49:44;1.80;99.90
27922;DHT22;15261;50.356;10.340;2024-01-06T02:52:10;1.80;99.90
27922;DHT22;15261;50.356;10.340;2024-01-06T02:54:35;1.80;99.90
27922;DHT22;15261;50.356;10.340;2024-01-06T02:57:07;1.80;99.90
27922;DHT22;15261;50.356;10.340;2024-01-06T02:59:38;1.80;99.90
27922;DHT22;15261;50.356;10.340;2024-01-06T03:02:03;1.90;99.90
27922;DHT22;15261;50.356;10.340;2024-01-06T03:04:29;1.90;99.90
27922;DHT22;15261;50.356;10.340;2024-01-06T03:07:05;1.90;99.90
27922;DHT22;15261;50.356;10.340;2024-01-06T03:09:31;1.90;99.90
27922;DHT22;15261;50.356;10.340;2024-01-06T03:11:56;1.90;99.90
27922;DHT22;15261;50.356;10.340;2024-01-06T03:14:22;1.90;99.90
27922;DHT22;15261;50.356;10.340;2024-01-06T03:16:48;1.90;99.90
27922;DHT22;15261;50.356;10.340;2024-01-06T03:19:13;1.90;99.90
27922;DHT22;15261;50.356;10.340;2024-01-06T03:21:41;1.80;99.90
27922;DHT22;15261;50.356;10.340;2024-01-06T03:24:07;1.70;99.90
27922;DHT22;15261;50.356;10.340;2024-01-06T03:26:37;1.60;99.90
27922;DHT22;15261;50.356;10.340;2024-01-06T03:29:02;1.60;99.90
27922;DHT22;15261;50.356;10.340;2024-01-06T03:31:29;1.70;99.90
27922;DHT22;15261;50.356;10.340;2024-01-06T03:33:54;1.70;99.90
27922;DHT22;15261;50.356;10.340;2024-01-06T03:36:21;1.80;99.90
27922;DHT22;15261;50.356;10.340;2024-01-06T03:38:47;1.80;99.90
27922;DHT22;15261;50.356;10.340;2024-01-06T03:41:12;1.80;99.90
27922;DHT22;15261;50.356;10.340;2024-01-06T03:43:38;1.80;99.90
27922;DHT22;15261;50.356;10.340;2024-01-06T03:46:05;1.80;99.90
27922;DHT22;15261;50.356;10.340;2024-01-06T03:48:30;1.80;99.90
27922;DHT22;15261;50.356;10.340;2024-01-06T03:50:58;1.90;99.90
27922;DHT22;15261;50.356;10.340;2024-01-06T03:53:24;1.90;99.90
27922;DHT22;15261;50.356;10.340;2024-01-06T03:55:50;1.90;99.90
27922;DHT22;15261;50.356;10.340;2024-01-06T03:58:15;1.90;99.90
27922;DHT22;15261;50.356;10.340;2024-01-06T04:00:41;1.90;99.90
27922;DHT22;15261;50.356;10.340;2024-01-06T04:03:06;1.90;99.90
27922;DHT22;15261;50.356;10.340;2024-01-06T04:05:32;1.90;99.90
27922;DHT22;15261;50.356;10.340;2024-01-06T04:07:58;1.90;99.90
27922;DHT22;15261;50.356;10.340;2024-01-06T04:10:23;1.80;99.90
27922;DHT22;15261;50.356;10.340;2024-01-06T04:12:49;1.80;99.90
27922;DHT22;15261;50.356;10.340;2024-01-06T04:15:14;1.90;99.90
27922;DHT22;15261;50.356;10.340;2024-01-06T04:17:40;1.90;99.90
27922;DHT22;15261;50.356;10.340;2024-01-06T04:20:06;1.80;99.90
27922;DHT22;15261;50.356;10.340;2024-01-06T04:22:31;1.80;99.90
27922;DHT22;15261;50.356;10.340;2024-01-06T04:24:57;1.70;99.90
27922;DHT22;15261;50.356;10.340;2024-01-06T04:27:23;1.70;99.90
27922;DHT22;15261;50.356;10.340;2024-01-06T04:29:48;1.70;99.90
27922;DHT22;15261;50.356;10.340;2024-01-06T04:32:18;1.70;99.90
27922;DHT22;15261;50.356;10.340;2024-01-06T04:34:44;1.70;99.90
27922;DHT22;15261;50.356;10.340;2024-01-06T04:37:09;1.80;99.90
27922;DHT22;15261;50.356;10.340;2024-01-06T04:39:35;1.80;99.90
27922;DHT22;15261;50.356;10.340;2024-01-06T04:42:00;1.80;99.90
27922;DHT22;15261;50.356;10.340;2024-01-06T04:44:26;1.80;99.90
27922;DHT22;15261;50.356;10.340;2024-01-06T04:46:52;1.80;99.90
27922;DHT22;15261;50.356;10.340;2024-01-06T04:49:17;1.90;99.90
27922;DHT22;15261;50.356;10.340;2024-01-06T04:51:43;1.90;99.90
27922;DHT22;15261;50.356;10.340;2024-01-06T04:54:08;1.90;99.90
27922;DHT22;15261;50.356;10.340;2024-01-06T04:56:34;1.90;99.90
27922;DHT22;15261;50.356;10.340;2024-01-06T04:58:59;1.90;99.90
27922;DHT22;15261;50.356;10.340;2024-01-06T05:01:25;1.90;99.90
27922;DHT22;15261;50.356;10.340;2024-01-06T05:03:51;1.90;99.90
27922;DHT22;15261;50.356;10.340;2024-01-06T05:06:16;2.00;99.90
27922;DHT22;15261;50.356;10.340;2024-01-06T05:08:42;2.00;99.90
27922;DHT22;15261;50.356;10.340;2024-01-06T05:11:10;2.00;99.90
27922;DHT22;15261;50.356;10.340;2024-01-06T05:13:36;2.10;99.90
27922;DHT22;15261;50.356;10.340;2024-01-06T05:16:02;2.10;99.90
27922;DHT22;15261;50.356;10.340;2024-01-06T05:18:27;2.10;99.90
27922;DHT22;15261;50.356;10.340;2024-01-06T05:20:54;2.20;99.90
27922;DHT22;15261;50.356;10.340;2024-01-06T05:23:19;2.20;99.90
27922;DHT22;15261;50.356;10.340;2024-01-06T05:25:45;2.30;99.90
27922;DHT22;15261;50.356;10.340;2024-01-06T05:28:10;2.30;99.90
27922;DHT22;15261;50.356;10.340;2024-01-06T05:30:36;2.20;99.90
27922;DHT22;15261;50.356;10.340;2024-01-06T05:33:02;2.20;99.90
27922;DHT22;15261;50.356;10.340;2024-01-06T05:35:28;2.20;99.90
27922;DHT22;15261;50.356;10.340;2024-01-06T05:37:54;2.20;99.90
27922;DHT22;15261;50.356;10.340;2024-01-06T05:40:20;2.20;99.90
27922;DHT22;15261;50.356;10.340;2024-01-06T05:42:45;2.30;99.90
27922;DHT22;15261;50.356;10.340;2024-01-06T05:45:11;2.30;99.90
27922;DHT22;15261;50.356;10.340;2024-01-06T05:47:40;2.30;99.90
27922;DHT22;15261;50.356;10.340;2024-01-06T05:50:06;2.40;99.90
27922;DHT22;15261;50.356;10.340;2024-01-06T05:52:34;2.40;99.90
27922;DHT22;15261;50.356;10.340;2024-01-06T05:55:00;2.40;99.90
27922;DHT22;15261;50.356;10.340;2024-01-06T05:57:25;2.40;99.90
27922;DHT22;15261;50.356;10.340;2024-01-06T05:59:51;2.40;99.90
27922;DHT22;15261;50.356;10.340;2024-01-06T06:02:16;2.40;99.90
27922;DHT22;15261;50.356;10.340;2024-01-06T06:04:42;2.40;99.90
27922;DHT22;15261;50.356;10.340;2024-01-06T06:07:07;2.40;99.90
27922;DHT22;15261;50.356;10.340;2024-01-06T06:09:33;2.20;99.90
27922;DHT22;15261;50.356;10.340;2024-01-06T06:12:00;2.30;99.90
27922;DHT22;15261;50.356;10.340;2024-01-06T06:14:25;2.30;99.90
27922;DHT22;15261;50.356;10.340;2024-01-06T06:16:51;2.40;99.90
27922;DHT22;15261;50.356;10.340;2024-01-06T06:19:17;2.40;99.90
27922;DHT22;15261;50.356;10.340;2024-01-06T06:21:44;2.40;99.90
27922;DHT22;15261;50.356;10.340;2024-01-06T06:24:09;2.40;99.90
27922;DHT22;15261;50.356;10.340;2024-01-06T06:26:35;2.40;99.90
27922;DHT22;15261;50.356;10.340;2024-01-06T06:29:00;2.50;99.90
27922;DHT22;15261;50.356;10.340;2024-01-06T06:31:26;2.50;99.90
27922;DHT22;15261;50.356;10.340;2024-01-06T06:33:52;2.50;99.90
27922;DHT22;15261;50.356;10.340;2024-01-06T06:36:17;2.50;99.90
27922;DHT22;15261;50.356;10.340;2024-01-06T06:38:43;2.60;99.90
27922;DHT22;15261;50.356;10.340;2024-01-06T06:41:09;2.60;99.90
27922;DHT22;15261;50.356;10.340;2024-01-06T06:43:34;2.60;99.90
27922;DHT22;15261;50.356;10.340;2024-01-06T06:46:00;2.60;99.90
27922;DHT22;15261;50.356;10.340;2024-01-06T06:48:25;2.70;99.90
27922;DHT22;15261;50.356;10.340;2024-01-06T06:50:51;2.70;99.90
27922;DHT22;15261;50.356;10.340;2024-01-06T06:53:17;2.60;99.90
27922;DHT22;15261;50.356;10.340;2024-01-06T06:55:43;2.60;99.90
27922;DHT22;15261;50.356;10.340;2024-01-06T06:58:08;2.60;99.90
27922;DHT22;15261;50.356;10.340;2024-01-06T07:00:35;2.60;99.90
27922;DHT22;15261;50.356;10.340;2024-01-06T07:03:01;2.70;99.90
27922;DHT22;15261;50.356;10.340;2024-01-06T07:05:26;2.70;99.90
27922;DHT22;15261;50.356;10.340;2024-01-06T07:07:52;2.70;99.90
27922;DHT22;15261;50.356;10.340;2024-01-06T07:10:18;2.70;99.90
27922;DHT22;15261;50.356;10.340;2024-01-06T07:12:43;2.70;99.90
27922;DHT22;15261;50.356;10.340;2024-01-06T07:15:09;2.80;99.90
27922;DHT22;15261;50.356;10.340;2024-01-06T07:17:36;2.80;99.90
27922;DHT22;15261;50.356;10.340;2024-01-06T07:20:02;2.80;99.90
27922;DHT22;15261;50.356;10.340;2024-01-06T07:22:27;2.80;99.90
27922;DHT22;15261;50.356;10.340;2024-01-06T07:24:53;2.80;99.90
27922;DHT22;15261;50.356;10.340;2024-01-06T07:27:18;2.80;99.90
27922;DHT22;15261;50.356;10.340;2024-01-06T07:29:45;2.90;99.90
27922;DHT22;15261;50.356;10.340;2024-01-06T07:32:10;2.90;99.90
27922;DHT22;15261;50.356;10.340;2024-01-06T07:34:36;3.00;99.90
27922;DHT22;15261;50.356;10.340;2024-01-06T07:37:02;3.10;99.90
27922;DHT22;15261;50.356;10.340;2024-01-06T07:39:27;3.00;99.90
27922;DHT22;15261;50.356;10.340;2024-01-06T07:41:53;3.00;99.90
27922;DHT22;15261;50.356;10.340;2024-01-06T07:44:19;3.00;99.90
27922;DHT22;15261;50.356;10.340;2024-01-06T07:46:50;3.00;99.90
27922;DHT22;15261;50.356;10.340;2024-01-06T07:49:16;3.10;99.90
27922;DHT22;15261;50.356;10.340;2024-01-06T07:51:42;3.10;99.90
27922;DHT22;15261;50.356;10.340;2024-01-06T07:54:07;3.20;99.90
27922;DHT22;15261;50.356;10.340;2024-01-06T07:56:34;3.30;99.90
27922;DHT22;15261;50.356;10.340;2024-01-06T07:59:01;3.30;99.90
27922;DHT22;15261;50.356;10.340;2024-01-06T08:01:27;3.40;99.90
27922;DHT22;15261;50.356;10.340;2024-01-06T08:03:52;3.40;99.90
27922;DHT22;15261;50.356;10.340;2024-01-06T08:06:18;3.50;99.90
27922;DHT22;15261;50.356;10.340;2024-01-06T08:08:44;3.50;99.90
27922;DHT22;15261;50.356;10.340;2024-01-06T08:11:11;3.50;99.90
27922;DHT22;15261;50.356;10.340;2024-01-06T08:13:37;3.50;99.90
27922;DHT22;15261;50.356;10.340;2024-01-06T08:16:02;3.50;99.90
27922;DHT22;15261;50.356;10.340;2024-01-06T08:18:32;3.50;99.90
27922;DHT22;15261;50.356;10.340;2024-01-06T08:20:58;3.60;99.90
27922;DHT22;15261;50.356;10.340;2024-01-06T08:23:23;3.60;99.90
27922;DHT22;15261;50.356;10.340;2024-01-06T08:25:49;3.60;99.90
27922;DHT22;15261;50.356;10.340;2024-01-06T08:28:15;3.60;99.90
27922;DHT22;15261;50.356;10.340;2024-01-06T08:31:12;3.60;99.90
27922;DHT22;15261;50.356;10.340;2024-01-06T08:33:42;3.70;99.90
27922;DHT22;15261;50.356;10.340;2024-01-06T08:36:13;3.70;99.90
27922;DHT22;15261;50.356;10.340;2024-01-06T08:38:43;3.70;99.90
27922;DHT22;15261;50.356;10.340;2024-01-06T08:41:09;3.70;99.90
27922;DHT22;15261;50.356;10.340;2024-01-06T08:43:34;3.80;99.90
27922;DHT22;15261;50.356;10.340;2024-01-06T08:46:26;3.80;99.90
27922;DHT22;15261;50.356;10.340;2024-01-06T08:48:51;3.90;99.90
27922;DHT22;15261;50.356;10.340;2024-01-06T08:51:17;3.90;99.90
27922;DHT22;15261;50.356;10.340;2024-01-06T08:53:42;4.00;99.90
27922;DHT22;15261;50.356;10.340;2024-01-06T08:56:08;4.10;99.90
27922;DHT22;15261;50.356;10.340;2024-01-06T08:58:34;4.00;99.90
27922;DHT22;15261;50.356;10.340;2024-01-06T09:01:00;4.00;99.90
27922;DHT22;15261;50.356;10.340;2024-01-06T09:03:25;4.00;99.90
27922;DHT22;15261;50.356;10.340;2024-01-06T09:05:56;4.10;99.90
27922;DHT22;15261;50.356;10.340;2024-01-06T09:08:22;4.10;99.90
27922;DHT22;15261;50.356;10.340;2024-01-06T09:10:49;4.00;99.90
27922;DHT22;15261;50.356;10.340;2024-01-06T09:13:17;4.00;99.90
27922;DHT22;15261;50.356;10.340;2024-01-06T09:15:43;4.00;99.90
27922;DHT22;15261;50.356;10.340;2024-01-06T09:18:10;3.90;99.90
27922;DHT22;15261;50.356;10.340;2024-01-06T09:20:36;3.90;99.90
27922;DHT22;15261;50.356;10.340;2024-01-06T09:23:02;3.90;99.90
27922;DHT22;15261;50.356;10.340;2024-01-06T09:25:27;3.90;99.90
27922;DHT22;15261;50.356;10.340;2024-01-06T09:27:53;3.90;99.90
27922;DHT22;15261;50.356;10.340;2024-01-06T09:30:18;4.00;99.90
27922;DHT22;15261;50.356;10.340;2024-01-06T09:32:44;4.10;99.90
27922;DHT22;15261;50.356;10.340;2024-01-06T09:35:10;4.10;99.90
27922;DHT22;15261;50.356;10.340;2024-01-06T09:37:36;4.20;99.90
27922;DHT22;15261;50.356;10.340;2024-01-06T09:40:01;4.30;99.90
27922;DHT22;15261;50.356;10.340;2024-01-06T09:42:27;4.40;99.90
27922;DHT22;15261;50.356;10.340;2024-01-06T09:44:52;4.50;99.90
27922;DHT22;15261;50.356;10.340;2024-01-06T09:47:18;4.60;99.90
27922;DHT22;15261;50.356;10.340;2024-01-06T09:49:49;4.70;99.90
27922;DHT22;15261;50.356;10.340;2024-01-06T09:52:17;4.80;99.90
27922;DHT22;15261;50.356;10.340;2024-01-06T09:54:52;4.80;99.90
27922;DHT22;15261;50.356;10.340;2024-01-06T09:57:18;5.00;99.90
27922;DHT22;15261;50.356;10.340;2024-01-06T09:59:47;4.90;99.90
27922;DHT22;15261;50.356;10.340;2024-01-06T10:02:16;4.90;99.90
27922;DHT22;15261;50.356;10.340;2024-01-06T10:04:43;4.80;99.90
27922;DHT22;15261;50.356;10.340;2024-01-06T10:07:09;4.80;99.90
27922;DHT22;15261;50.356;10.340;2024-01-06T10:09:38;4.70;99.90
27922;DHT22;15261;50.356;10.340;2024-01-06T10:12:03;4.60;99.90
27922;DHT22;15261;50.356;10.340;2024-01-06T10:14:30;4.50;99.90
27922;DHT22;15261;50.356;10.340;2024-01-06T10:16:55;4.40;99.90
27922;DHT22;15261;50.356;10.340;2024-01-06T10:19:23;4.40;99.90
27922;DHT22;15261;50.356;10.340;2024-01-06T10:21:49;4.40;99.90
27922;DHT22;15261;50.356;10.340;2024-01-06T10:24:17;4.40;99.90
27922;DHT22;15261;50.356;10.340;2024-01-06T10:26:48;4.40;99.90
27922;DHT22;15261;50.356;10.340;2024-01-06T10:29:14;4.60;99.90
27922;DHT22;15261;50.356;10.340;2024-01-06T10:31:41;4.60;99.90
27922;DHT22;15261;50.356;10.340;2024-01-06T10:34:06;4.60;99.90
27922;DHT22;15261;50.356;10.340;2024-01-06T10:36:32;4.70;99.90
27922;DHT22;15261;50.356;10.340;2024-01-06T10:38:58;4.80;99.90
27922;DHT22;15261;50.356;10.340;2024-01-06T10:41:24;4.90;99.90
27922;DHT22;15261;50.356;10.340;2024-01-06T10:43:51;5.00;99.90
27922;DHT22;15261;50.356;10.340;2024-01-06T10:46:19;5.10;99.90
27922;DHT22;15261;50.356;10.340;2024-01-06T10:48:45;5.20;99.90
27922;DHT22;15261;50.356;10.340;2024-01-06T10:51:12;5.40;99.90
27922;DHT22;15261;50.356;10.340;2024-01-06T10:53:40;5.50;99.90
27922;DHT22;15261;50.356;10.340;2024-01-06T10:56:07;5.50;99.90
27922;DHT22;15261;50.356;10.340;2024-01-06T10:58:34;5.60;99.90
27922;DHT22;15261;50.356;10.340;2024-01-06T11:01:03;5.50;99.90
27922;DHT22;15261;50.356;10.340;2024-01-06T11:03:29;5.50;99.90
27922;DHT22;15261;50.356;10.340;2024-01-06T11:05:57;5.50;99.90
27922;DHT22;15261;50.356;10.340;2024-01-06T11:08:24;5.40;99.90
27922;DHT22;15261;50.356;10.340;2024-01-06T11:10:55;5.40;99.90
27922;DHT22;15261;50.356;10.340;2024-01-06T11:13:23;5.30;99.90
27922;DHT22;15261;50.356;10.340;2024-01-06T11:16:06;5.40;99.90
27922;DHT22;15261;50.356;10.340;2024-01-06T11:18:39;5.50;99.90
27922;DHT22;15261;50.356;10.340;2024-01-06T11:26:39;5.90;99.90
27922;DHT22;15261;50.356;10.340;2024-01-06T11:29:12;6.00;99.90
27922;DHT22;15261;50.356;10.340;2024-01-06T11:31:38;6.00;99.90
27922;DHT22;15261;50.356;10.340;2024-01-06T11:34:18;5.90;99.90
27922;DHT22;15261;50.356;10.340;2024-01-06T11:36:48;5.90;99.90
27922;DHT22;15261;50.356;10.340;2024-01-06T11:39:50;5.80;99.90
27922;DHT22;15261;50.356;10.340;2024-01-06T11:42:15;5.70;99.90
27922;DHT22;15261;50.356;10.340;2024-01-06T11:44:45;5.60;99.90
27922;DHT22;15261;50.356;10.340;2024-01-06T11:50:49;5.50;99.90
27922;DHT22;15261;50.356;10.340;2024-01-06T11:53:21;5.30;99.90
27922;DHT22;15261;50.356;10.340;2024-01-06T11:55:51;5.30;99.90
27922;DHT22;15261;50.356;10.340;2024-01-06T11:58:20;5.30;99.90
27922;DHT22;15261;50.356;10.340;2024-01-06T12:00:55;5.40;99.90
27922;DHT22;15261;50.356;10.340;2024-01-06T12:03:35;5.40;99.90
27922;DHT22;15261;50.356;10.340;2024-01-06T12:06:02;5.60;99.90
27922;DHT22;15261;50.356;10.340;2024-01-06T12:08:28;5.70;99.90
27922;DHT22;15261;50.356;10.340;2024-01-06T12:11:16;5.90;99.90
27922;DHT22;15261;50.356;10.340;2024-01-06T12:13:44;5.90;99.90
27922;DHT22;15261;50.356;10.340;2024-01-06T12:16:10;6.00;99.90
27922;DHT22;15261;50.356;10.340;2024-01-06T12:18:36;6.00;99.90
27922;DHT22;15261;50.356;10.340;2024-01-06T12:21:04;6.00;99.90
27922;DHT22;15261;50.356;10.340;2024-01-06T12:23:30;5.80;99.90
27922;DHT22;15261;50.356;10.340;2024-01-06T12:25:56;5.80;99.90
27922;DHT22;15261;50.356;10.340;2024-01-06T12:28:22;5.70;99.90
27922;DHT22;15261;50.356;10.340;2024-01-06T12:30:48;5.70;99.90
27922;DHT22;15261;50.356;10.340;2024-01-06T12:33:14;5.70;99.90
27922;DHT22;15261;50.356;10.340;2024-01-06T12:35:40;5.70;99.90
27922;DHT22;15261;50.356;10.340;2024-01-06T12:38:08;5.70;99.90
27922;DHT22;15261;50.356;10.340;2024-01-06T12:40:38;5.70;99.90
27922;DHT22;15261;50.356;10.340;2024-01-06T12:43:05;5.90;99.90
27922;DHT22;15261;50.356;10.340;2024-01-06T12:45:31;5.90;99.90
27922;DHT22;15261;50.356;10.340;2024-01-06T12:47:56;5.90;99.90
27922;DHT22;15261;50.356;10.340;2024-01-06T12:50:22;5.90;99.90
27922;DHT22;15261;50.356;10.340;2024-01-06T12:52:47;5.90;99.90
27922;DHT22;15261;50.356;10.340;2024-01-06T12:55:13;5.90;99.90
27922;DHT22;15261;50.356;10.340;2024-01-06T12:57:39;6.10;99.90
27922;DHT22;15261;50.356;10.340;2024-01-06T13:00:14;6.20;99.90
27922;DHT22;15261;50.356;10.340;2024-01-06T13:02:40;6.30;99.90
27922;DHT22;15261;50.356;10.340;2024-01-06T13:05:06;6.30;99.90
27922;DHT22;15261;50.356;10.340;2024-01-06T13:07:40;6.30;99.90
27922;DHT22;15261;50.356;10.340;2024-01-06T13:10:09;6.40;99.90
27922;DHT22;15261;50.356;10.340;2024-01-06T13:41:40;6.30;99.90
27922;DHT22;15261;50.356;10.340;2024-01-06T13:44:12;6.20;99.90
27922;DHT22;15261;50.356;10.340;2024-01-06T13:46:40;6.10;99.90
27922;DHT22;15261;50.356;10.340;2024-01-06T13:49:11;6.10;99.90
27922;DHT22;15261;50.356;10.340;2024-01-06T13:51:40;6.10;99.90
27922;DHT22;15261;50.356;10.340;2024-01-06T13:54:06;6.20;99.90
27922;DHT22;15261;50.356;10.340;2024-01-06T13:56:35;6.20;99.90
27922;DHT22;15261;50.356;10.340;2024-01-06T13:59:00;6.20;99.90
27922;DHT22;15261;50.356;10.340;2024-01-06T14:01:26;6.20;99.90
27922;DHT22;15261;50.356;10.340;2024-01-06T14:03:52;6.20;99.90
27922;DHT22;15261;50.356;10.340;2024-01-06T14:06:29;6.30;99.90
27922;DHT22;15261;50.356;10.340;2024-01-06T14:08:59;6.30;99.90
27922;DHT22;15261;50.356;10.340;2024-01-06T14:11:26;6.30;99.90
27922;DHT22;15261;50.356;10.340;2024-01-06T14:13:53;6.30;99.90
27922;DHT22;15261;50.356;10.340;2024-01-06T14:16:19;6.20;99.90
27922;DHT22;15261;50.356;10.340;2024-01-06T14:18:46;6.20;99.90
27922;DHT22;15261;50.356;10.340;2024-01-06T14:21:11;6.20;99.90
27922;DHT22;15261;50.356;10.340;2024-01-06T14:23:41;6.30;99.90
27922;DHT22;15261;50.356;10.340;2024-01-06T14:26:06;6.30;99.90
27922;DHT22;15261;50.356;10.340;2024-01-06T14:28:32;6.20;99.90
27922;DHT22;15261;50.356;10.340;2024-01-06T14:30:58;6.20;99.90
27922;DHT22;15261;50.356;10.340;2024-01-06T14:33:50;6.10;99.90
27922;DHT22;15261;50.356;10.340;2024-01-06T14:36:16;6.10;99.90
27922;DHT22;15261;50.356;10.340;2024-01-06T14:38:43;6.10;99.90
27922;DHT22;15261;50.356;10.340;2024-01-06T14:41:16;6.10;99.90
27922;DHT22;15261;50.356;10.340;2024-01-06T14:43:41;6.10;99.90
27922;DHT22;15261;50.356;10.340;2024-01-06T14:46:07;6.10;99.90
27922;DHT22;15261;50.356;10.340;2024-01-06T14:48:32;6.00;99.90
27922;DHT22;15261;50.356;10.340;2024-01-06T14:50:58;6.00;99.90
27922;DHT22;15261;50.356;10.340;2024-01-06T14:53:24;6.00;99.90
27922;DHT22;15261;50.356;10.340;2024-01-06T14:55:49;5.90;99.90
27922;DHT22;15261;50.356;10.340;2024-01-06T14:58:15;5.90;99.90
27922;DHT22;15261;50.356;10.340;2024-01-06T15:00:40;5.80;99.90
27922;DHT22;15261;50.356;10.340;2024-01-06T15:03:06;5.80;99.90
27922;DHT22;15261;50.356;10.340;2024-01-06T15:05:31;5.80;99.90
27922;DHT22;15261;50.356;10.340;2024-01-06T15:07:57;5.70;99.90
27922;DHT22;15261;50.356;10.340;2024-01-06T15:10:23;5.70;99.90
27922;DHT22;15261;50.356;10.340;2024-01-06T15:12:48;5.60;99.90
27922;DHT22;15261;50.356;10.340;2024-01-06T15:15:14;5.60;99.90
27922;DHT22;15261;50.356;10.340;2024-01-06T15:17:40;5.60;99.90
27922;DHT22;15261;50.356;10.340;2024-01-06T15:20:06;5.50;99.90
27922;DHT22;15261;50.356;10.340;2024-01-06T15:22:32;5.50;99.90
27922;DHT22;15261;50.356;10.340;2024-01-06T15:24:57;5.50;99.90
27922;DHT22;15261;50.356;10.340;2024-01-06T15:27:25;5.40;99.90
27922;DHT22;15261;50.356;10.340;2024-01-06T15:29:50;5.40;99.90
27922;DHT22;15261;50.356;10.340;2024-01-06T15:32:16;5.40;99.90
27922;DHT22;15261;50.356;10.340;2024-01-06T15:34:41;5.30;99.90
27922;DHT22;15261;50.356;10.340;2024-01-06T15:37:07;5.30;99.90
27922;DHT22;15261;50.356;10.340;2024-01-06T15:39:33;5.30;99.90
27922;DHT22;15261;50.356;10.340;2024-01-06T15:41:58;5.30;99.90
27922;DHT22;15261;50.356;10.340;2024-01-06T15:44:24;5.20;99.90
27922;DHT22;15261;50.356;10.340;2024-01-06T15:46:50;5.20;99.90
27922;DHT22;15261;50.356;10.340;2024-01-06T15:49:15;5.20;99.90
27922;DHT22;15261;50.356;10.340;2024-01-06T15:51:41;5.20;99.90
27922;DHT22;15261;50.356;10.340;2024-01-06T15:54:07;5.20;99.90
27922;DHT22;15261;50.356;10.340;2024-01-06T15:56:32;5.20;99.90
27922;DHT22;15261;50.356;10.340;2024-01-06T15:58:58;5.20;99.90
27922;DHT22;15261;50.356;10.340;2024-01-06T16:01:23;5.20;99.90
27922;DHT22;15261;50.356;10.340;2024-01-06T16:03:49;5.10;99.90
27922;DHT22;15261;50.356;10.340;2024-01-06T16:06:15;5.10;99.90
27922;DHT22;15261;50.356;10.340;2024-01-06T16:08:40;5.10;99.90
27922;DHT22;15261;50.356;10.340;2024-01-06T16:11:06;5.20;99.90
27922;DHT22;15261;50.356;10.340;2024-01-06T16:13:32;5.10;99.90
27922;DHT22;15261;50.356;10.340;2024-01-06T16:15:57;5.20;99.90
27922;DHT22;15261;50.356;10.340;2024-01-06T16:18:23;5.10;99.90
27922;DHT22;15261;50.356;10.340;2024-01-06T16:20:49;5.10;99.90
27922;DHT22;15261;50.356;10.340;2024-01-06T16:23:14;5.10;99.90
27922;DHT22;15261;50.356;10.340;2024-01-06T16:25:43;5.00;99.90
27922;DHT22;15261;50.356;10.340;2024-01-06T16:28:08;5.00;99.90
27922;DHT22;15261;50.356;10.340;2024-01-06T16:30:42;5.00;99.90
27922;DHT22;15261;50.356;10.340;2024-01-06T16:33:09;5.10;99.90
27922;DHT22;15261;50.356;10.340;2024-01-06T16:35:35;5.10;99.90
27922;DHT22;15261;50.356;10.340;2024-01-06T16:38:10;5.00;99.90
27922;DHT22;15261;50.356;10.340;2024-01-06T16:40:36;5.00;99.90
27922;DHT22;15261;50.356;10.340;2024-01-06T16:43:01;5.00;99.90
27922;DHT22;15261;50.356;10.340;2024-01-06T16:45:27;5.00;99.90
27922;DHT22;15261;50.356;10.340;2024-01-06T16:47:53;5.00;99.90
27922;DHT22;15261;50.356;10.340;2024-01-06T16:50:18;5.00;99.90